Mercer County (BLF)

 

Airport Diagram
No Airport Diagram Available
Current Weather/Forecast (VFR Conditions)
METAR KBLF 182352Z AUTO 31003KT 10SM FEW075 11/M02 A2989 RMK AO2 SLP114 T01061017 10133 20106 58001
TAF KBLF 182320Z 1900/1924 28003KT P6SM SCT080 FM191500 28010KT P6SM SCT045

Airport Information

All Charts
General
Chart Name View
TAKEOFF MINIMUMS
ALTERNATE MINIMUMS
TAKEOFF MINIMUMS
ALTERNATE MINIMUMS

Departures
Chart Name Download
OBERS FOUR
OBERS FOUR

Approaches
Chart Name Download
ILS OR LOC RWY 23
RNAV (GPS) RWY 05
RNAV (GPS) RWY 23
VOR RWY 23
ILS OR LOC RWY 23
RNAV (GPS) RWY 05
RNAV (GPS) RWY 23
VOR RWY 23


Airport Statistics
Departures Arrivals Local
All Collected Stats since June 2016: 16 21 0
2021 Stats: 3 3 0
April Stats: 0 0 0

Inbound Traffic (Arrivals) - 0

No inbound traffic.


Outbound Traffic (Departures) - 0

No outbound traffic.


Local Traffic (Pattern) - 0

No local traffic.